sensor_id;sensor_type;location;lat;lon;timestamp;P1;durP1;ratioP1;P2;durP2;ratioP2
68593;SDS011;55563;52.416;13.548;2023-07-31T00:01:55;1.30;;;1.25;;
68593;SDS011;55563;52.416;13.548;2023-07-31T00:03:56;1.10;;;1.10;;
68593;SDS011;55563;52.416;13.548;2023-07-31T00:05:57;1.25;;;1.15;;
68593;SDS011;55563;52.416;13.548;2023-07-31T00:07:58;1.23;;;1.13;;
68593;SDS011;55563;52.416;13.548;2023-07-31T00:09:58;1.30;;;1.20;;
68593;SDS011;55563;52.416;13.548;2023-07-31T00:11:59;1.73;;;1.30;;
68593;SDS011;55563;52.416;13.548;2023-07-31T00:14:00;1.30;;;1.20;;
68593;SDS011;55563;52.416;13.548;2023-07-31T00:16:01;1.70;;;1.38;;
68593;SDS011;55563;52.416;13.548;2023-07-31T00:18:01;2.08;;;1.40;;
68593;SDS011;55563;52.416;13.548;2023-07-31T00:20:02;1.73;;;1.55;;
68593;SDS011;55563;52.416;13.548;2023-07-31T00:24:04;1.50;;;1.40;;
68593;SDS011;55563;52.416;13.548;2023-07-31T00:26:05;1.77;;;1.60;;
68593;SDS011;55563;52.416;13.548;2023-07-31T00:28:05;2.05;;;1.65;;
68593;SDS011;55563;52.416;13.548;2023-07-31T00:30:06;1.55;;;1.38;;
68593;SDS011;55563;52.416;13.548;2023-07-31T00:32:07;1.95;;;1.70;;
68593;SDS011;55563;52.416;13.548;2023-07-31T00:34:08;2.60;;;1.42;;
68593;SDS011;55563;52.416;13.548;2023-07-31T00:36:09;2.10;;;1.70;;
68593;SDS011;55563;52.416;13.548;2023-07-31T00:38:10;1.77;;;1.58;;
68593;SDS011;55563;52.416;13.548;2023-07-31T00:40:11;1.48;;;1.20;;
68593;SDS011;55563;52.416;13.548;2023-07-31T00:42:15;2.05;;;1.63;;
68593;SDS011;55563;52.416;13.548;2023-07-31T00:44:16;1.75;;;1.65;;
68593;SDS011;55563;52.416;13.548;2023-07-31T00:46:17;1.40;;;1.30;;
68593;SDS011;55563;52.416;13.548;2023-07-31T00:48:17;2.25;;;1.65;;
68593;SDS011;55563;52.416;13.548;2023-07-31T00:50:18;1.90;;;1.00;;
68593;SDS011;55563;52.416;13.548;2023-07-31T00:52:19;2.10;;;2.00;;
68593;SDS011;55563;52.416;13.548;2023-07-31T00:54:20;1.75;;;1.45;;
68593;SDS011;55563;52.416;13.548;2023-07-31T00:56:21;1.63;;;1.52;;
68593;SDS011;55563;52.416;13.548;2023-07-31T00:58:23;1.65;;;1.40;;
68593;SDS011;55563;52.416;13.548;2023-07-31T01:00:26;1.83;;;1.45;;
68593;SDS011;55563;52.416;13.548;2023-07-31T01:02:27;1.73;;;1.58;;
68593;SDS011;55563;52.416;13.548;2023-07-31T01:04:27;1.70;;;1.60;;
68593;SDS011;55563;52.416;13.548;2023-07-31T01:06:33;1.35;;;1.25;;
68593;SDS011;55563;52.416;13.548;2023-07-31T01:08:42;1.65;;;1.50;;
68593;SDS011;55563;52.416;13.548;2023-07-31T01:10:54;2.65;;;1.77;;
68593;SDS011;55563;52.416;13.548;2023-07-31T01:13:00;1.80;;;1.60;;
68593;SDS011;55563;52.416;13.548;2023-07-31T01:15:04;1.85;;;1.52;;
68593;SDS011;55563;52.416;13.548;2023-07-31T01:17:08;2.47;;;1.58;;
68593;SDS011;55563;52.416;13.548;2023-07-31T01:19:09;1.80;;;1.55;;
68593;SDS011;55563;52.416;13.548;2023-07-31T01:26:34;1.65;;;1.55;;
68593;SDS011;55563;52.416;13.548;2023-07-31T01:28:27;1.70;;;1.20;;
68593;SDS011;55563;52.416;13.548;2023-07-31T01:30:41;1.45;;;1.10;;
68593;SDS011;55563;52.416;13.548;2023-07-31T01:32:45;2.08;;;1.35;;
68593;SDS011;55563;52.416;13.548;2023-07-31T01:34:49;1.13;;;1.00;;
68593;SDS011;55563;52.416;13.548;2023-07-31T01:36:51;1.80;;;1.23;;
68593;SDS011;55563;52.416;13.548;2023-07-31T01:38:52;1.98;;;1.15;;
68593;SDS011;55563;52.416;13.548;2023-07-31T01:40:53;2.65;;;1.23;;
68593;SDS011;55563;52.416;13.548;2023-07-31T01:42:53;1.55;;;1.23;;
68593;SDS011;55563;52.416;13.548;2023-07-31T01:44:54;2.20;;;1.23;;
68593;SDS011;55563;52.416;13.548;2023-07-31T01:46:55;2.28;;;1.25;;
68593;SDS011;55563;52.416;13.548;2023-07-31T01:48:55;1.52;;;1.08;;
68593;SDS011;55563;52.416;13.548;2023-07-31T01:51:00;1.83;;;1.30;;
68593;SDS011;55563;52.416;13.548;2023-07-31T01:53:00;1.83;;;1.02;;
68593;SDS011;55563;52.416;13.548;2023-07-31T01:55:01;1.92;;;1.20;;
68593;SDS011;55563;52.416;13.548;2023-07-31T01:59:03;1.63;;;1.27;;
68593;SDS011;55563;52.416;13.548;2023-07-31T02:01:04;2.05;;;1.30;;
68593;SDS011;55563;52.416;13.548;2023-07-31T02:03:04;2.00;;;1.50;;
68593;SDS011;55563;52.416;13.548;2023-07-31T02:05:05;1.55;;;1.20;;
68593;SDS011;55563;52.416;13.548;2023-07-31T02:07:06;1.77;;;1.40;;
68593;SDS011;55563;52.416;13.548;2023-07-31T02:09:07;1.65;;;1.23;;
68593;SDS011;55563;52.416;13.548;2023-07-31T02:11:07;2.20;;;1.40;;
68593;SDS011;55563;52.416;13.548;2023-07-31T02:13:08;2.65;;;1.30;;
68593;SDS011;55563;52.416;13.548;2023-07-31T02:15:09;1.73;;;1.33;;
68593;SDS011;55563;52.416;13.548;2023-07-31T02:17:10;1.58;;;1.38;;
68593;SDS011;55563;52.416;13.548;2023-07-31T02:19:10;1.75;;;1.40;;
68593;SDS011;55563;52.416;13.548;2023-07-31T02:21:11;2.50;;;1.60;;
68593;SDS011;55563;52.416;13.548;2023-07-31T02:23:12;1.40;;;1.30;;
68593;SDS011;55563;52.416;13.548;2023-07-31T02:25:12;1.77;;;1.30;;
68593;SDS011;55563;52.416;13.548;2023-07-31T02:27:13;2.10;;;1.90;;
68593;SDS011;55563;52.416;13.548;2023-07-31T02:29:14;2.40;;;1.35;;
68593;SDS011;55563;52.416;13.548;2023-07-31T02:31:14;1.90;;;1.20;;
68593;SDS011;55563;52.416;13.548;2023-07-31T02:33:15;2.67;;;1.38;;
68593;SDS011;55563;52.416;13.548;2023-07-31T02:35:16;2.10;;;1.30;;
68593;SDS011;55563;52.416;13.548;2023-07-31T02:37:18;2.22;;;1.48;;
68593;SDS011;55563;52.416;13.548;2023-07-31T02:39:20;2.13;;;1.65;;
68593;SDS011;55563;52.416;13.548;2023-07-31T02:41:21;2.13;;;1.40;;
68593;SDS011;55563;52.416;13.548;2023-07-31T02:43:22;1.95;;;1.70;;
68593;SDS011;55563;52.416;13.548;2023-07-31T02:45:23;2.47;;;1.55;;
68593;SDS011;55563;52.416;13.548;2023-07-31T02:47:23;1.42;;;1.20;;
68593;SDS011;55563;52.416;13.548;2023-07-31T02:49:24;1.80;;;1.65;;
68593;SDS011;55563;52.416;13.548;2023-07-31T02:51:25;3.08;;;1.42;;
68593;SDS011;55563;52.416;13.548;2023-07-31T02:53:25;2.67;;;1.60;;
68593;SDS011;55563;52.416;13.548;2023-07-31T02:55:26;4.25;;;1.92;;
68593;SDS011;55563;52.416;13.548;2023-07-31T02:57:27;2.75;;;1.73;;
68593;SDS011;55563;52.416;13.548;2023-07-31T02:59:27;3.65;;;1.90;;
68593;SDS011;55563;52.416;13.548;2023-07-31T03:01:28;3.05;;;1.95;;
68593;SDS011;55563;52.416;13.548;2023-07-31T03:03:29;2.58;;;1.90;;
68593;SDS011;55563;52.416;13.548;2023-07-31T03:05:29;2.40;;;1.98;;
68593;SDS011;55563;52.416;13.548;2023-07-31T03:07:30;2.35;;;2.00;;
68593;SDS011;55563;52.416;13.548;2023-07-31T03:09:31;2.53;;;1.70;;
68593;SDS011;55563;52.416;13.548;2023-07-31T03:11:31;3.00;;;2.00;;
68593;SDS011;55563;52.416;13.548;2023-07-31T03:13:32;1.75;;;1.63;;
68593;SDS011;55563;52.416;13.548;2023-07-31T03:15:32;7.45;;;1.98;;
68593;SDS011;55563;52.416;13.548;2023-07-31T03:17:33;2.53;;;1.95;;
68593;SDS011;55563;52.416;13.548;2023-07-31T03:19:34;3.13;;;1.70;;
68593;SDS011;55563;52.416;13.548;2023-07-31T03:21:35;2.70;;;1.63;;
68593;SDS011;55563;52.416;13.548;2023-07-31T03:23:35;2.63;;;1.55;;
68593;SDS011;55563;52.416;13.548;2023-07-31T03:25:36;1.98;;;1.38;;
68593;SDS011;55563;52.416;13.548;2023-07-31T03:27:36;3.53;;;1.80;;
68593;SDS011;55563;52.416;13.548;2023-07-31T03:29:37;2.13;;;1.80;;
68593;SDS011;55563;52.416;13.548;2023-07-31T03:31:38;2.38;;;1.85;;
68593;SDS011;55563;52.416;13.548;2023-07-31T03:33:38;2.40;;;1.80;;
68593;SDS011;55563;52.416;13.548;2023-07-31T03:35:39;3.15;;;1.98;;
68593;SDS011;55563;52.416;13.548;2023-07-31T03:37:40;2.90;;;1.52;;
68593;SDS011;55563;52.416;13.548;2023-07-31T03:39:41;2.10;;;1.65;;
68593;SDS011;55563;52.416;13.548;2023-07-31T03:41:41;3.60;;;1.70;;
68593;SDS011;55563;52.416;13.548;2023-07-31T03:43:42;2.60;;;1.63;;
68593;SDS011;55563;52.416;13.548;2023-07-31T03:45:43;2.65;;;1.60;;
68593;SDS011;55563;52.416;13.548;2023-07-31T03:47:43;2.05;;;1.73;;
68593;SDS011;55563;52.416;13.548;2023-07-31T03:49:44;2.45;;;1.60;;
68593;SDS011;55563;52.416;13.548;2023-07-31T03:51:44;1.95;;;1.63;;
68593;SDS011;55563;52.416;13.548;2023-07-31T03:53:45;2.25;;;1.50;;
68593;SDS011;55563;52.416;13.548;2023-07-31T03:55:46;2.15;;;1.58;;
68593;SDS011;55563;52.416;13.548;2023-07-31T03:57:46;2.40;;;1.77;;
68593;SDS011;55563;52.416;13.548;2023-07-31T03:59:47;2.17;;;1.50;;
68593;SDS011;55563;52.416;13.548;2023-07-31T04:01:47;3.15;;;1.75;;
68593;SDS011;55563;52.416;13.548;2023-07-31T04:03:48;1.98;;;1.60;;
68593;SDS011;55563;52.416;13.548;2023-07-31T04:05:49;2.10;;;1.42;;
68593;SDS011;55563;52.416;13.548;2023-07-31T04:07:49;2.13;;;1.75;;
68593;SDS011;55563;52.416;13.548;2023-07-31T04:09:50;2.55;;;1.70;;
68593;SDS011;55563;52.416;13.548;2023-07-31T04:11:50;2.30;;;1.65;;
68593;SDS011;55563;52.416;13.548;2023-07-31T04:13:51;3.08;;;1.55;;
68593;SDS011;55563;52.416;13.548;2023-07-31T04:15:52;2.95;;;1.70;;
68593;SDS011;55563;52.416;13.548;2023-07-31T04:17:52;2.80;;;1.63;;
68593;SDS011;55563;52.416;13.548;2023-07-31T04:19:53;2.38;;;1.42;;
68593;SDS011;55563;52.416;13.548;2023-07-31T04:21:53;2.67;;;1.90;;
68593;SDS011;55563;52.416;13.548;2023-07-31T04:23:54;2.45;;;1.80;;
68593;SDS011;55563;52.416;13.548;2023-07-31T04:25:56;2.45;;;1.73;;
68593;SDS011;55563;52.416;13.548;2023-07-31T04:27:57;2.30;;;1.65;;
68593;SDS011;55563;52.416;13.548;2023-07-31T04:29:57;2.63;;;1.83;;
68593;SDS011;55563;52.416;13.548;2023-07-31T04:31:58;2.55;;;1.60;;
68593;SDS011;55563;52.416;13.548;2023-07-31T04:33:58;2.47;;;1.80;;
68593;SDS011;55563;52.416;13.548;2023-07-31T04:35:59;2.42;;;1.65;;
68593;SDS011;55563;52.416;13.548;2023-07-31T04:38:00;2.72;;;1.80;;
68593;SDS011;55563;52.416;13.548;2023-07-31T04:40:00;2.60;;;1.63;;
68593;SDS011;55563;52.416;13.548;2023-07-31T04:42:01;2.17;;;1.60;;
68593;SDS011;55563;52.416;13.548;2023-07-31T04:44:02;3.50;;;1.60;;
68593;SDS011;55563;52.416;13.548;2023-07-31T04:46:04;2.45;;;1.52;;
68593;SDS011;55563;52.416;13.548;2023-07-31T04:48:04;3.90;;;1.60;;
68593;SDS011;55563;52.416;13.548;2023-07-31T04:50:05;3.08;;;1.80;;
68593;SDS011;55563;52.416;13.548;2023-07-31T04:54:07;3.35;;;1.60;;
68593;SDS011;55563;52.416;13.548;2023-07-31T04:56:07;2.38;;;1.48;;
68593;SDS011;55563;52.416;13.548;2023-07-31T04:58:08;2.15;;;1.58;;
68593;SDS011;55563;52.416;13.548;2023-07-31T05:00:09;3.45;;;1.90;;
68593;SDS011;55563;52.416;13.548;2023-07-31T05:02:11;2.15;;;1.58;;
68593;SDS011;55563;52.416;13.548;2023-07-31T05:04:12;3.15;;;1.58;;
68593;SDS011;55563;52.416;13.548;2023-07-31T05:06:14;1.98;;;1.42;;
68593;SDS011;55563;52.416;13.548;2023-07-31T05:08:16;2.30;;;1.48;;
68593;SDS011;55563;52.416;13.548;2023-07-31T05:10:17;1.75;;;1.45;;
68593;SDS011;55563;52.416;13.548;2023-07-31T05:12:18;2.58;;;1.33;;
68593;SDS011;55563;52.416;13.548;2023-07-31T05:14:19;1.35;;;1.25;;
68593;SDS011;55563;52.416;13.548;2023-07-31T05:16:20;2.35;;;1.50;;
68593;SDS011;55563;52.416;13.548;2023-07-31T05:18:21;3.28;;;1.67;;
68593;SDS011;55563;52.416;13.548;2023-07-31T05:20:21;2.92;;;1.40;;
68593;SDS011;55563;52.416;13.548;2023-07-31T05:22:22;2.47;;;1.35;;
68593;SDS011;55563;52.416;13.548;2023-07-31T05:24:23;2.20;;;1.30;;
68593;SDS011;55563;52.416;13.548;2023-07-31T05:26:23;2.08;;;1.42;;
68593;SDS011;55563;52.416;13.548;2023-07-31T05:28:24;1.90;;;1.25;;
68593;SDS011;55563;52.416;13.548;2023-07-31T05:30:25;1.95;;;1.60;;
68593;SDS011;55563;52.416;13.548;2023-07-31T05:32:25;1.83;;;1.33;;
68593;SDS011;55563;52.416;13.548;2023-07-31T05:34:26;2.15;;;1.40;;
68593;SDS011;55563;52.416;13.548;2023-07-31T05:36:27;3.10;;;1.60;;
68593;SDS011;55563;52.416;13.548;2023-07-31T05:38:27;1.83;;;1.40;;
68593;SDS011;55563;52.416;13.548;2023-07-31T05:40:28;2.17;;;1.67;;
68593;SDS011;55563;52.416;13.548;2023-07-31T05:42:28;2.42;;;1.42;;
68593;SDS011;55563;52.416;13.548;2023-07-31T05:44:29;1.67;;;1.42;;
68593;SDS011;55563;52.416;13.548;2023-07-31T05:46:30;3.05;;;1.33;;
68593;SDS011;55563;52.416;13.548;2023-07-31T05:48:31;2.90;;;1.40;;
68593;SDS011;55563;52.416;13.548;2023-07-31T05:50:32;2.95;;;1.40;;
68593;SDS011;55563;52.416;13.548;2023-07-31T05:52:32;2.00;;;1.40;;
68593;SDS011;55563;52.416;13.548;2023-07-31T05:54:33;2.78;;;1.40;;
68593;SDS011;55563;52.416;13.548;2023-07-31T05:56:34;2.97;;;1.60;;
68593;SDS011;55563;52.416;13.548;2023-07-31T05:58:34;1.95;;;1.35;;
68593;SDS011;55563;52.416;13.548;2023-07-31T06:00:35;2.47;;;1.35;;
68593;SDS011;55563;52.416;13.548;2023-07-31T06:02:35;2.17;;;1.52;;
68593;SDS011;55563;52.416;13.548;2023-07-31T06:06:38;3.17;;;1.60;;
68593;SDS011;55563;52.416;13.548;2023-07-31T06:08:38;2.65;;;1.35;;
68593;SDS011;55563;52.416;13.548;2023-07-31T06:10:40;3.28;;;1.60;;
68593;SDS011;55563;52.416;13.548;2023-07-31T06:12:41;2.00;;;1.42;;
68593;SDS011;55563;52.416;13.548;2023-07-31T06:14:41;1.70;;;1.30;;
68593;SDS011;55563;52.416;13.548;2023-07-31T06:16:42;2.97;;;1.60;;
68593;SDS011;55563;52.416;13.548;2023-07-31T06:18:44;1.90;;;1.33;;
68593;SDS011;55563;52.416;13.548;2023-07-31T06:20:44;1.85;;;1.40;;
68593;SDS011;55563;52.416;13.548;2023-07-31T06:22:45;2.30;;;1.40;;
68593;SDS011;55563;52.416;13.548;2023-07-31T06:24:46;2.20;;;1.38;;
68593;SDS011;55563;52.416;13.548;2023-07-31T06:26:47;2.58;;;1.10;;
68593;SDS011;55563;52.416;13.548;2023-07-31T06:28:47;1.60;;;1.25;;
68593;SDS011;55563;52.416;13.548;2023-07-31T06:30:48;3.03;;;1.40;;
68593;SDS011;55563;52.416;13.548;2023-07-31T06:32:48;3.53;;;1.33;;
68593;SDS011;55563;52.416;13.548;2023-07-31T06:34:49;1.95;;;1.50;;
68593;SDS011;55563;52.416;13.548;2023-07-31T06:38:51;1.98;;;1.25;;
68593;SDS011;55563;52.416;13.548;2023-07-31T06:40:51;2.65;;;1.30;;
68593;SDS011;55563;52.416;13.548;2023-07-31T06:42:52;2.47;;;1.33;;
68593;SDS011;55563;52.416;13.548;2023-07-31T06:44:53;1.98;;;1.20;;
68593;SDS011;55563;52.416;13.548;2023-07-31T06:46:53;2.63;;;1.33;;
68593;SDS011;55563;52.416;13.548;2023-07-31T06:48:54;1.83;;;1.25;;
68593;SDS011;55563;52.416;13.548;2023-07-31T06:50:55;1.73;;;1.35;;
68593;SDS011;55563;52.416;13.548;2023-07-31T06:52:56;1.52;;;1.25;;
68593;SDS011;55563;52.416;13.548;2023-07-31T06:55:14;2.63;;;1.63;;
68593;SDS011;55563;52.416;13.548;2023-07-31T06:57:18;2.00;;;1.20;;
68593;SDS011;55563;52.416;13.548;2023-07-31T06:59:19;2.28;;;1.30;;
68593;SDS011;55563;52.416;13.548;2023-07-31T07:01:20;2.08;;;1.45;;
68593;SDS011;55563;52.416;13.548;2023-07-31T07:03:20;2.10;;;1.35;;
68593;SDS011;55563;52.416;13.548;2023-07-31T07:05:21;2.08;;;1.40;;
68593;SDS011;55563;52.416;13.548;2023-07-31T07:07:22;2.50;;;1.50;;
68593;SDS011;55563;52.416;13.548;2023-07-31T07:09:22;2.03;;;1.38;;
68593;SDS011;55563;52.416;13.548;2023-07-31T07:11:23;2.22;;;1.45;;
68593;SDS011;55563;52.416;13.548;2023-07-31T07:13:25;2.58;;;1.40;;
68593;SDS011;55563;52.416;13.548;2023-07-31T07:15:26;2.42;;;1.33;;
68593;SDS011;55563;52.416;13.548;2023-07-31T07:17:27;3.42;;;1.52;;
68593;SDS011;55563;52.416;13.548;2023-07-31T07:19:29;2.10;;;1.38;;
68593;SDS011;55563;52.416;13.548;2023-07-31T07:21:30;2.20;;;1.45;;
68593;SDS011;55563;52.416;13.548;2023-07-31T07:23:31;2.55;;;1.27;;
68593;SDS011;55563;52.416;13.548;2023-07-31T07:25:31;2.33;;;1.38;;
68593;SDS011;55563;52.416;13.548;2023-07-31T07:27:32;2.97;;;1.52;;
68593;SDS011;55563;52.416;13.548;2023-07-31T07:29:34;2.22;;;1.40;;
68593;SDS011;55563;52.416;13.548;2023-07-31T07:31:35;2.40;;;1.42;;
68593;SDS011;55563;52.416;13.548;2023-07-31T07:35:36;1.75;;;1.15;;
68593;SDS011;55563;52.416;13.548;2023-07-31T07:37:37;1.75;;;1.33;;
68593;SDS011;55563;52.416;13.548;2023-07-31T07:39:38;3.25;;;1.60;;
68593;SDS011;55563;52.416;13.548;2023-07-31T07:41:38;1.73;;;1.30;;
68593;SDS011;55563;52.416;13.548;2023-07-31T07:43:39;2.63;;;1.60;;
68593;SDS011;55563;52.416;13.548;2023-07-31T07:45:40;2.22;;;1.65;;
68593;SDS011;55563;52.416;13.548;2023-07-31T07:47:40;2.08;;;1.50;;
68593;SDS011;55563;52.416;13.548;2023-07-31T07:51:42;2.50;;;1.75;;
68593;SDS011;55563;52.416;13.548;2023-07-31T07:53:42;3.15;;;2.42;;
68593;SDS011;55563;52.416;13.548;2023-07-31T07:55:43;1.65;;;1.45;;
68593;SDS011;55563;52.416;13.548;2023-07-31T07:57:44;2.47;;;1.65;;
68593;SDS011;55563;52.416;13.548;2023-07-31T07:59:45;1.83;;;1.40;;
68593;SDS011;55563;52.416;13.548;2023-07-31T08:01:45;2.38;;;1.42;;
68593;SDS011;55563;52.416;13.548;2023-07-31T08:03:46;2.08;;;1.30;;
68593;SDS011;55563;52.416;13.548;2023-07-31T08:05:48;2.75;;;1.27;;
68593;SDS011;55563;52.416;13.548;2023-07-31T08:07:48;1.85;;;1.38;;
68593;SDS011;55563;52.416;13.548;2023-07-31T08:09:49;2.20;;;1.35;;
68593;SDS011;55563;52.416;13.548;2023-07-31T08:11:50;1.92;;;1.35;;
68593;SDS011;55563;52.416;13.548;2023-07-31T08:13:51;2.50;;;1.40;;
68593;SDS011;55563;52.416;13.548;2023-07-31T08:15:51;1.42;;;1.23;;
68593;SDS011;55563;52.416;13.548;2023-07-31T08:17:52;1.45;;;1.30;;
68593;SDS011;55563;52.416;13.548;2023-07-31T08:19:53;2.25;;;1.42;;
68593;SDS011;55563;52.416;13.548;2023-07-31T08:21:53;1.65;;;1.20;;
68593;SDS011;55563;52.416;13.548;2023-07-31T08:23:54;3.00;;;1.50;;
68593;SDS011;55563;52.416;13.548;2023-07-31T08:25:54;2.17;;;1.40;;
68593;SDS011;55563;52.416;13.548;2023-07-31T08:27:56;2.03;;;1.48;;
68593;SDS011;55563;52.416;13.548;2023-07-31T08:29:56;2.63;;;1.50;;
68593;SDS011;55563;52.416;13.548;2023-07-31T08:31:57;2.05;;;1.30;;
68593;SDS011;55563;52.416;13.548;2023-07-31T08:33:58;3.17;;;1.40;;
68593;SDS011;55563;52.416;13.548;2023-07-31T08:35:58;2.17;;;1.40;;
68593;SDS011;55563;52.416;13.548;2023-07-31T08:37:59;1.77;;;1.40;;
68593;SDS011;55563;52.416;13.548;2023-07-31T08:40:00;1.92;;;1.40;;
68593;SDS011;55563;52.416;13.548;2023-07-31T08:42:00;1.60;;;1.50;;
68593;SDS011;55563;52.416;13.548;2023-07-31T08:44:01;2.67;;;1.45;;
68593;SDS011;55563;52.416;13.548;2023-07-31T08:46:02;3.35;;;1.42;;
68593;SDS011;55563;52.416;13.548;2023-07-31T08:48:03;1.70;;;1.23;;
68593;SDS011;55563;52.416;13.548;2023-07-31T08:52:06;2.88;;;1.23;;
68593;SDS011;55563;52.416;13.548;2023-07-31T08:54:07;5.55;;;1.42;;
68593;SDS011;55563;52.416;13.548;2023-07-31T08:56:07;1.75;;;1.33;;
68593;SDS011;55563;52.416;13.548;2023-07-31T08:58:09;1.40;;;1.30;;
68593;SDS011;55563;52.416;13.548;2023-07-31T09:00:13;1.33;;;1.23;;
68593;SDS011;55563;52.416;13.548;2023-07-31T09:02:14;1.80;;;1.40;;
68593;SDS011;55563;52.416;13.548;2023-07-31T09:04:16;2.15;;;1.20;;
68593;SDS011;55563;52.416;13.548;2023-07-31T09:06:20;1.70;;;1.15;;
68593;SDS011;55563;52.416;13.548;2023-07-31T09:08:23;2.65;;;1.70;;
68593;SDS011;55563;52.416;13.548;2023-07-31T09:10:26;1.95;;;1.10;;
68593;SDS011;55563;52.416;13.548;2023-07-31T09:12:27;2.30;;;1.45;;
68593;SDS011;55563;52.416;13.548;2023-07-31T09:14:28;1.63;;;1.00;;
68593;SDS011;55563;52.416;13.548;2023-07-31T09:16:29;1.67;;;1.15;;
68593;SDS011;55563;52.416;13.548;2023-07-31T09:18:32;1.40;;;1.30;;
68593;SDS011;55563;52.416;13.548;2023-07-31T09:21:01;1.20;;;1.10;;
68593;SDS011;55563;52.416;13.548;2023-07-31T09:23:13;1.33;;;0.90;;
68593;SDS011;55563;52.416;13.548;2023-07-31T09:25:18;1.30;;;1.10;;
68593;SDS011;55563;52.416;13.548;2023-07-31T09:27:41;1.73;;;1.00;;
68593;SDS011;55563;52.416;13.548;2023-07-31T09:29:58;0.88;;;0.80;;
68593;SDS011;55563;52.416;13.548;2023-07-31T09:31:59;1.15;;;0.80;;
68593;SDS011;55563;52.416;13.548;2023-07-31T09:33:59;1.25;;;0.70;;
68593;SDS011;55563;52.416;13.548;2023-07-31T09:38:09;1.58;;;0.73;;
68593;SDS011;55563;52.416;13.548;2023-07-31T09:40:11;2.05;;;0.75;;
68593;SDS011;55563;52.416;13.548;2023-07-31T09:42:26;0.95;;;0.52;;
68593;SDS011;55563;52.416;13.548;2023-07-31T09:44:42;0.60;;;0.60;;
68593;SDS011;55563;52.416;13.548;2023-07-31T09:46:42;0.65;;;0.65;;
68593;SDS011;55563;52.416;13.548;2023-07-31T09:50:45;1.17;;;0.52;;
68593;SDS011;55563;52.416;13.548;2023-07-31T09:52:46;0.88;;;0.60;;
68593;SDS011;55563;52.416;13.548;2023-07-31T09:54:47;1.05;;;0.90;;
68593;SDS011;55563;52.416;13.548;2023-07-31T09:56:49;1.85;;;0.82;;
68593;SDS011;55563;52.416;13.548;2023-07-31T09:58:50;0.70;;;0.70;;
68593;SDS011;55563;52.416;13.548;2023-07-31T10:00:51;1.70;;;0.90;;
68593;SDS011;55563;52.416;13.548;2023-07-31T10:02:52;1.95;;;1.10;;
68593;SDS011;55563;52.416;13.548;2023-07-31T10:04:55;1.92;;;1.10;;
68593;SDS011;55563;52.416;13.548;2023-07-31T10:06:59;1.02;;;0.93;;
68593;SDS011;55563;52.416;13.548;2023-07-31T10:09:05;2.78;;;1.23;;
68593;SDS011;55563;52.416;13.548;2023-07-31T10:11:07;1.23;;;1.13;;
68593;SDS011;55563;52.416;13.548;2023-07-31T10:13:10;1.75;;;1.10;;
68593;SDS011;55563;52.416;13.548;2023-07-31T10:15:12;2.13;;;1.33;;
68593;SDS011;55563;52.416;13.548;2023-07-31T10:17:14;1.65;;;1.33;;
68593;SDS011;55563;52.416;13.548;2023-07-31T10:19:17;3.00;;;1.33;;
68593;SDS011;55563;52.416;13.548;2023-07-31T10:21:19;1.80;;;1.60;;
68593;SDS011;55563;52.416;13.548;2023-07-31T10:23:19;2.65;;;1.30;;
68593;SDS011;55563;52.416;13.548;2023-07-31T10:25:20;1.98;;;1.40;;
68593;SDS011;55563;52.416;13.548;2023-07-31T10:27:22;2.60;;;1.55;;
68593;SDS011;55563;52.416;13.548;2023-07-31T10:29:23;1.88;;;1.38;;
68593;SDS011;55563;52.416;13.548;2023-07-31T10:31:24;2.45;;;1.55;;
68593;SDS011;55563;52.416;13.548;2023-07-31T10:33:27;2.20;;;1.50;;
68593;SDS011;55563;52.416;13.548;2023-07-31T10:35:28;2.50;;;1.40;;
68593;SDS011;55563;52.416;13.548;2023-07-31T10:37:29;2.28;;;1.40;;
68593;SDS011;55563;52.416;13.548;2023-07-31T10:39:36;2.28;;;1.45;;
68593;SDS011;55563;52.416;13.548;2023-07-31T10:41:39;2.42;;;1.83;;
68593;SDS011;55563;52.416;13.548;2023-07-31T10:43:40;3.03;;;1.60;;
68593;SDS011;55563;52.416;13.548;2023-07-31T10:45:42;2.58;;;1.80;;
68593;SDS011;55563;52.416;13.548;2023-07-31T10:47:44;2.15;;;1.50;;
68593;SDS011;55563;52.416;13.548;2023-07-31T10:49:46;1.75;;;1.40;;
68593;SDS011;55563;52.416;13.548;2023-07-31T10:51:47;1.83;;;1.50;;
68593;SDS011;55563;52.416;13.548;2023-07-31T10:53:48;2.85;;;1.70;;
68593;SDS011;55563;52.416;13.548;2023-07-31T10:55:48;2.13;;;1.52;;
68593;SDS011;55563;52.416;13.548;2023-07-31T10:57:52;2.30;;;1.52;;
68593;SDS011;55563;52.416;13.548;2023-07-31T11:00:07;3.15;;;1.50;;
68593;SDS011;55563;52.416;13.548;2023-07-31T11:02:26;1.92;;;1.50;;
68593;SDS011;55563;52.416;13.548;2023-07-31T11:04:29;3.47;;;1.75;;
68593;SDS011;55563;52.416;13.548;2023-07-31T11:06:32;2.03;;;1.50;;
68593;SDS011;55563;52.416;13.548;2023-07-31T11:08:33;2.75;;;1.77;;
68593;SDS011;55563;52.416;13.548;2023-07-31T11:10:35;2.78;;;1.50;;
68593;SDS011;55563;52.416;13.548;2023-07-31T11:12:36;3.08;;;1.48;;
68593;SDS011;55563;52.416;13.548;2023-07-31T11:14:38;2.10;;;1.60;;
68593;SDS011;55563;52.416;13.548;2023-07-31T11:16:38;2.05;;;1.60;;
68593;SDS011;55563;52.416;13.548;2023-07-31T11:18:42;3.45;;;1.73;;
68593;SDS011;55563;52.416;13.548;2023-07-31T11:20:44;2.75;;;1.52;;
68593;SDS011;55563;52.416;13.548;2023-07-31T11:22:44;2.47;;;1.45;;
68593;SDS011;55563;52.416;13.548;2023-07-31T11:24:45;3.30;;;1.60;;
68593;SDS011;55563;52.416;13.548;2023-07-31T11:26:50;2.72;;;1.50;;
68593;SDS011;55563;52.416;13.548;2023-07-31T11:28:52;2.00;;;1.80;;
68593;SDS011;55563;52.416;13.548;2023-07-31T11:30:55;2.45;;;1.70;;
68593;SDS011;55563;52.416;13.548;2023-07-31T11:32:56;2.30;;;1.50;;
68593;SDS011;55563;52.416;13.548;2023-07-31T11:34:56;1.60;;;1.30;;
68593;SDS011;55563;52.416;13.548;2023-07-31T11:36:57;1.92;;;1.55;;
68593;SDS011;55563;52.416;13.548;2023-07-31T11:39:07;1.70;;;1.20;;
68593;SDS011;55563;52.416;13.548;2023-07-31T11:41:09;2.05;;;1.48;;
68593;SDS011;55563;52.416;13.548;2023-07-31T11:43:10;1.90;;;1.38;;
68593;SDS011;55563;52.416;13.548;2023-07-31T11:45:16;3.38;;;1.30;;
68593;SDS011;55563;52.416;13.548;2023-07-31T11:47:17;2.58;;;1.40;;
68593;SDS011;55563;52.416;13.548;2023-07-31T11:49:17;4.15;;;1.55;;
68593;SDS011;55563;52.416;13.548;2023-07-31T11:51:18;2.50;;;1.55;;
68593;SDS011;55563;52.416;13.548;2023-07-31T11:53:23;1.88;;;1.33;;
68593;SDS011;55563;52.416;13.548;2023-07-31T11:55:30;3.28;;;1.42;;
68593;SDS011;55563;52.416;13.548;2023-07-31T11:59:31;2.58;;;1.52;;
68593;SDS011;55563;52.416;13.548;2023-07-31T12:01:32;1.75;;;1.40;;
68593;SDS011;55563;52.416;13.548;2023-07-31T12:03:33;2.35;;;1.40;;
68593;SDS011;55563;52.416;13.548;2023-07-31T12:07:42;1.50;;;1.13;;
68593;SDS011;55563;52.416;13.548;2023-07-31T12:09:53;2.10;;;1.40;;
68593;SDS011;55563;52.416;13.548;2023-07-31T12:11:54;3.08;;;1.50;;
68593;SDS011;55563;52.416;13.548;2023-07-31T12:13:55;1.77;;;1.50;;
68593;SDS011;55563;52.416;13.548;2023-07-31T12:15:56;2.45;;;1.55;;
68593;SDS011;55563;52.416;13.548;2023-07-31T12:17:58;2.05;;;1.27;;
68593;SDS011;55563;52.416;13.548;2023-07-31T12:19:59;2.05;;;1.20;;
68593;SDS011;55563;52.416;13.548;2023-07-31T12:22:00;2.47;;;1.40;;
68593;SDS011;55563;52.416;13.548;2023-07-31T12:24:01;2.38;;;1.50;;
68593;SDS011;55563;52.416;13.548;2023-07-31T12:26:11;1.60;;;1.27;;
68593;SDS011;55563;52.416;13.548;2023-07-31T12:28:13;2.38;;;1.63;;
68593;SDS011;55563;52.416;13.548;2023-07-31T12:32:32;2.08;;;1.30;;
68593;SDS011;55563;52.416;13.548;2023-07-31T12:36:42;1.45;;;1.20;;